Time;durP1;ratioP1;P1;durP2;ratioP2;P2;SDS_P1;SDS_P2;PMS_P1;PMS_P2;Temp;Humidity;BMP_temperature;BMP_pressure;BME280_temperature;BME280_humidity;BME280_pressure;Samples;Min_cycle;Max_cycle;Signal;HPM_P1;HPM_P2
2022/10/08 00:01:14;;;;;;;10.90;4.87;;;11.30;17.30;;;;;;5021543;28;20295;-65
2022/10/08 00:03:44;;;;;;;14.00;3.87;;;11.20;19.60;;;;;;5039785;28;20271;-63
2022/10/08 00:06:18;;;;;;;12.63;3.97;;;11.20;33.10;;;;;;5022692;28;20200;-66
2022/10/08 00:08:55;;;;;;;14.40;4.83;;;11.10;43.00;;;;;;5040329;28;20195;-66
2022/10/08 00:11:25;;;;;;;10.23;3.50;;;11.10;56.70;;;;;;5005443;28;20231;-66
2022/10/08 00:13:54;;;;;;;15.33;4.00;;;11.10;46.20;;;;;;5022715;28;20227;-64
2022/10/08 00:16:51;;;;;;;10.70;3.90;;;11.00;62.90;;;;;;5041278;28;20302;-65
2022/10/08 00:19:18;;;;;;;10.33;4.60;;;11.10;52.90;;;;;;5018424;28;20215;-65
2022/10/08 00:21:46;;;;;;;14.20;4.27;;;11.00;73.80;;;;;;5054294;28;20196;-66
2022/10/08 00:24:16;;;;;;;9.53;3.77;;;11.00;82.70;;;;;;5038859;28;20231;-64
2022/10/08 00:26:43;;;;;;;19.47;4.87;;;11.00;81.10;;;;;;5039105;28;20239;-64
2022/10/08 00:29:14;;;;;;;20.83;7.93;;;11.00;85.00;;;;;;5038581;28;20181;-65
2022/10/08 00:31:44;;;;;;;16.57;6.20;;;11.00;90.10;;;;;;5039687;28;20677;-63
2022/10/08 00:34:15;;;;;;;15.87;5.17;;;11.00;88.60;;;;;;5038855;28;20206;-65
2022/10/08 00:36:42;;;;;;;13.83;5.43;;;11.00;96.20;;;;;;5036844;28;20558;-66
2022/10/08 00:39:16;;;;;;;22.13;8.93;;;11.00;77.30;;;;;;5038735;28;20211;-67
2022/10/08 00:41:45;;;;;;;14.17;5.93;;;11.00;99.90;;;;;;5036293;28;20196;-65
2022/10/08 00:44:52;;;;;;;20.63;8.53;;;11.00;99.90;;;;;;5038163;28;20913;-66
2022/10/08 00:47:19;;;;;;;14.47;6.20;;;10.90;99.90;;;;;;5045451;28;20769;-66
2022/10/08 00:49:48;;;;;;;13.63;4.83;;;10.90;99.30;;;;;;5028601;28;20262;-66
2022/10/08 00:52:17;;;;;;;18.60;6.57;;;10.90;99.90;;;;;;5022432;28;20302;-65
2022/10/08 00:54:45;;;;;;;20.50;9.70;;;10.90;99.90;;;;;;5039127;28;20607;-66
2022/10/08 00:57:12;;;;;;;17.33;6.53;;;10.80;99.90;;;;;;5038408;28;20196;-66
2022/10/08 00:59:39;;;;;;;22.20;7.87;;;10.80;99.90;;;;;;5022365;28;20228;-65
2022/10/08 01:02:07;;;;;;;19.83;7.13;;;10.80;99.90;;;;;;5040521;28;20234;-66
2022/10/08 01:04:36;;;;;;;13.20;4.67;;;10.70;99.90;;;;;;5004901;28;20211;-66
2022/10/08 01:07:25;;;;;;;13.10;5.97;;;10.70;99.90;;;;;;5037895;28;20203;-66
2022/10/08 01:09:58;;;;;;;16.00;5.73;;;10.70;99.90;;;;;;5037477;28;20234;-65
2022/10/08 01:12:53;;;;;;;11.50;4.30;;;10.70;99.90;;;;;;5038059;28;20270;-66
2022/10/08 01:15:35;;;;;;;21.23;7.93;;;10.70;99.90;;;;;;5030978;28;20282;-65
2022/10/08 01:18:17;;;;;;;16.30;4.43;;;10.60;99.90;;;;;;5020763;28;20214;-64
2022/10/08 01:21:05;;;;;;;11.87;3.17;;;10.60;99.90;;;;;;5037636;28;20204;-65
2022/10/08 01:23:45;;;;;;;14.37;4.10;;;10.60;99.90;;;;;;5034502;28;20290;-68
2022/10/08 01:26:53;;;;;;;13.47;6.20;;;10.70;99.90;;;;;;5054651;28;20202;-67
2022/10/08 01:29:26;;;;;;;16.57;5.80;;;10.70;99.90;;;;;;4972312;28;20720;-67
2022/10/08 01:31:58;;;;;;;13.27;3.87;;;10.70;99.90;;;;;;4983425;28;20557;-67
2022/10/08 01:34:35;;;;;;;16.60;6.03;;;10.60;99.90;;;;;;5013635;28;20208;-67
2022/10/08 01:37:05;;;;;;;10.63;4.27;;;10.70;99.90;;;;;;5041089;28;20204;-67
2022/10/08 01:39:35;;;;;;;9.60;4.13;;;10.60;99.90;;;;;;5055726;28;20735;-67
2022/10/08 01:42:06;;;;;;;13.20;4.73;;;10.70;99.90;;;;;;5042501;28;20230;-67
2022/10/08 01:44:40;;;;;;;17.00;4.30;;;10.70;99.90;;;;;;5042437;28;20196;-66
2022/10/08 01:47:12;;;;;;;15.00;5.47;;;10.60;99.90;;;;;;5057135;28;20184;-67
2022/10/08 01:49:52;;;;;;;14.07;4.20;;;10.60;99.90;;;;;;5054537;28;20385;-65
2022/10/08 01:52:24;;;;;;;11.70;5.40;;;10.50;99.90;;;;;;5039732;28;20203;-66
2022/10/08 01:54:57;;;;;;;21.53;8.67;;;10.60;99.90;;;;;;5041206;28;20294;-66
2022/10/08 01:57:26;;;;;;;16.97;4.67;;;10.70;99.90;;;;;;5028011;28;20200;-65
2022/10/08 02:00:01;;;;;;;17.60;5.80;;;10.70;99.90;;;;;;5038475;28;20222;-65
2022/10/08 02:02:38;;;;;;;7.07;3.40;;;10.70;99.90;;;;;;5039747;28;20254;-65
2022/10/08 02:05:06;;;;;;;12.17;4.07;;;10.70;99.90;;;;;;5056513;28;21208;-64
2022/10/08 02:07:36;;;;;;;19.13;4.83;;;10.70;99.90;;;;;;5044964;28;20286;-64
2022/10/08 02:10:18;;;;;;;9.60;3.63;;;10.80;99.90;;;;;;5039503;28;20203;-66
2022/10/08 02:12:44;;;;;;;10.87;4.17;;;10.80;99.90;;;;;;5029272;28;20222;-65
2022/10/08 02:15:34;;;;;;;14.33;4.33;;;10.90;99.90;;;;;;5019835;28;20954;-63
2022/10/08 02:18:08;;;;;;;19.50;7.03;;;10.90;99.90;;;;;;5021687;28;20208;-63
2022/10/08 02:20:41;;;;;;;12.87;5.00;;;10.80;99.90;;;;;;5024070;28;20196;-64
2022/10/08 02:23:20;;;;;;;15.13;4.80;;;10.80;99.90;;;;;;5030389;28;20637;-67
2022/10/08 02:26:02;;;;;;;10.33;4.10;;;10.90;99.90;;;;;;5056193;28;20828;-68
2022/10/08 02:28:48;;;;;;;10.63;3.67;;;10.80;99.90;;;;;;5023857;28;20289;-67
2022/10/08 02:31:15;;;;;;;7.90;3.50;;;10.90;99.90;;;;;;5039058;28;20192;-68
2022/10/08 02:34:10;;;;;;;11.43;3.53;;;10.90;99.90;;;;;;5040494;28;20227;-68
2022/10/08 02:36:44;;;;;;;8.90;3.50;;;10.90;99.90;;;;;;5033675;28;20632;-66
2022/10/08 02:39:14;;;;;;;9.37;3.33;;;11.00;99.90;;;;;;5041265;28;21099;-64
2022/10/08 02:41:51;;;;;;;11.63;3.83;;;11.00;99.90;;;;;;5022642;28;20188;-64
2022/10/08 02:44:34;;;;;;;9.00;3.87;;;11.10;89.40;;;;;;5038089;28;20192;-64
2022/10/08 02:47:05;;;;;;;10.17;3.20;;;11.20;81.00;;;;;;5038510;28;20195;-66
2022/10/08 02:49:37;;;;;;;13.20;3.20;;;11.20;75.90;;;;;;5041512;28;20215;-64
2022/10/08 02:52:07;;;;;;;11.37;3.13;;;11.30;44.60;;;;;;5037972;28;20211;-66
2022/10/08 02:54:38;;;;;;;8.87;3.40;;;11.40;23.90;;;;;;5040045;28;20196;-64
2022/10/08 02:57:17;;;;;;;9.80;3.00;;;11.40;14.00;;;;;;5029524;28;20311;-65
2022/10/08 02:59:45;;;;;;;11.57;3.57;;;11.50;7.10;;;;;;5037014;28;20665;-68
2022/10/08 03:02:26;;;;;;;14.47;3.20;;;11.50;13.40;;;;;;5022187;28;20236;-65
2022/10/08 03:05:00;;;;;;;13.27;3.20;;;11.50;1.00;;;;;;5050513;28;20196;-66
2022/10/08 03:07:32;;;;;;;8.83;3.03;;;11.60;1.00;;;;;;5039167;28;20535;-65
2022/10/08 03:10:04;;;;;;;9.53;3.47;;;11.60;1.00;;;;;;5042222;28;20200;-65
2022/10/08 03:12:32;;;;;;;8.47;2.77;;;11.50;6.70;;;;;;5023012;28;20230;-64
2022/10/08 03:14:59;;;;;;;8.20;2.90;;;11.60;3.50;;;;;;5038244;28;20202;-63
2022/10/08 03:17:41;;;;;;;14.17;3.50;;;11.60;8.80;;;;;;5022423;28;20910;-64
2022/10/08 03:20:09;;;;;;;12.03;3.10;;;11.70;1.00;;;;;;5029518;28;20250;-64
2022/10/08 03:22:37;;;;;;;13.03;3.23;;;11.80;1.00;;;;;;5027689;28;20196;-64
2022/10/08 03:25:04;;;;;;;13.57;3.30;;;11.80;1.00;;;;;;5039100;28;20206;-63
2022/10/08 03:27:33;;;;;;;11.07;3.40;;;11.80;1.00;;;;;;5041569;28;20659;-66
2022/10/08 03:30:02;;;;;;;11.33;3.60;;;11.80;8.00;;;;;;5053717;28;20263;-66
2022/10/08 03:32:29;;;;;;;13.80;6.73;;;11.90;26.80;;;;;;5022235;28;20211;-64
2022/10/08 03:34:56;;;;;;;17.37;8.57;;;11.90;1.00;;;;;;5040767;28;20227;-64
2022/10/08 03:37:23;;;;;;;15.20;5.40;;;11.90;4.90;;;;;;5038550;28;20187;-64
2022/10/08 03:39:51;;;;;;;20.10;9.57;;;11.90;18.80;;;;;;5029675;28;20227;-65
2022/10/08 03:42:18;;;;;;;12.60;5.00;;;11.90;10.20;;;;;;5041485;28;20192;-65
2022/10/08 03:44:45;;;;;;;11.63;5.47;;;11.90;54.50;;;;;;5040484;28;20627;-65
2022/10/08 03:47:12;;;;;;;13.47;4.63;;;11.90;38.90;;;;;;5023114;28;20697;-66
2022/10/08 03:49:40;;;;;;;9.43;4.50;;;11.90;97.10;;;;;;5038091;28;20729;-65
2022/10/08 03:52:07;;;;;;;15.57;6.07;;;11.80;90.30;;;;;;5037341;28;20212;-65
2022/10/08 03:54:34;;;;;;;12.10;5.60;;;11.80;92.60;;;;;;5041812;28;20234;-65
2022/10/08 03:57:02;;;;;;;16.43;5.60;;;11.80;99.90;;;;;;5050881;28;20738;-65
2022/10/08 03:59:29;;;;;;;19.13;6.50;;;11.80;99.90;;;;;;5038374;28;20212;-64
2022/10/08 04:01:56;;;;;;;10.93;4.50;;;11.80;99.90;;;;;;5038471;28;20520;-64
2022/10/08 04:04:23;;;;;;;12.93;5.17;;;11.70;99.90;;;;;;5021376;28;20204;-64
2022/10/08 04:06:51;;;;;;;13.53;7.13;;;11.80;99.90;;;;;;5039330;28;20270;-66
2022/10/08 04:09:18;;;;;;;16.97;4.97;;;11.80;99.90;;;;;;5005779;28;20204;-64
2022/10/08 04:11:45;;;;;;;14.17;4.90;;;11.70;99.90;;;;;;5038793;28;20200;-63
2022/10/08 04:14:12;;;;;;;11.70;4.33;;;11.80;99.90;;;;;;5037564;28;20207;-64
2022/10/08 04:16:39;;;;;;;13.40;4.70;;;11.80;99.90;;;;;;5021365;28;20674;-64
2022/10/08 04:19:06;;;;;;;12.60;4.10;;;11.70;1.00;;;;;;5021564;28;20212;-65
2022/10/08 04:21:33;;;;;;;13.10;5.10;;;11.70;1.00;;;;;;5029168;28;20242;-67
2022/10/08 04:24:00;;;;;;;11.13;5.90;;;11.60;20.10;;;;;;5039232;28;20188;-66
2022/10/08 04:26:26;;;;;;;11.93;7.13;;;11.70;1.00;;;;;;5056161;28;20593;-67
2022/10/08 04:28:54;;;;;;;15.03;5.03;;;11.60;1.00;;;;;;5019994;28;20255;-67
2022/10/08 04:31:22;;;;;;;15.77;7.43;;;11.60;99.90;;;;;;5033514;28;20551;-66
2022/10/08 04:33:50;;;;;;;17.27;8.03;;;11.60;1.00;;;;;;5021032;28;20200;-66
2022/10/08 04:36:20;;;;;;;15.03;6.80;;;11.60;1.00;;;;;;5033453;28;20228;-66
2022/10/08 04:38:47;;;;;;;15.70;6.70;;;11.70;1.00;;;;;;5002567;28;20224;-65
2022/10/08 04:41:16;;;;;;;14.77;7.80;;;11.70;1.00;;;;;;5018479;28;20288;-65
2022/10/08 04:43:44;;;;;;;15.63;8.37;;;11.70;99.90;;;;;;5025411;28;20204;-65
2022/10/08 04:46:14;;;;;;;17.33;8.00;;;11.60;99.90;;;;;;5016077;28;20201;-65
2022/10/08 04:48:50;;;;;;;17.57;8.87;;;11.60;99.90;;;;;;5019942;28;20210;-66
2022/10/08 04:51:18;;;;;;;16.17;7.87;;;11.50;1.00;;;;;;5017005;28;20208;-64
2022/10/08 04:53:46;;;;;;;16.33;9.03;;;11.50;1.00;;;;;;5025026;28;20200;-65
2022/10/08 04:56:19;;;;;;;24.33;10.07;;;11.50;1.00;;;;;;5016645;28;20235;-66
2022/10/08 04:58:47;;;;;;;14.30;7.13;;;11.50;99.90;;;;;;5018886;28;20298;-65
2022/10/08 05:01:16;;;;;;;20.17;8.60;;;11.50;99.90;;;;;;5015715;28;20200;-65
2022/10/08 05:03:46;;;;;;;19.03;7.23;;;11.60;99.90;;;;;;5033345;28;20201;-64
2022/10/08 05:06:15;;;;;;;18.23;7.93;;;11.50;1.00;;;;;;5014360;28;20202;-65
2022/10/08 05:08:43;;;;;;;16.40;8.03;;;11.40;1.00;;;;;;5024126;28;20562;-64
2022/10/08 05:11:11;;;;;;;14.13;8.23;;;11.40;1.00;;;;;;5018562;28;20413;-64
2022/10/08 05:13:38;;;;;;;14.50;8.10;;;11.40;1.00;;;;;;5016197;28;20580;-64
2022/10/08 05:16:07;;;;;;;19.00;10.00;;;11.40;1.00;;;;;;5016964;28;20202;-65
2022/10/08 05:18:36;;;;;;;19.13;10.97;;;11.40;1.00;;;;;;5033298;28;20597;-64
2022/10/08 05:21:08;;;;;;;21.03;9.97;;;11.40;1.00;;;;;;5031956;28;20196;-65
2022/10/08 05:23:36;;;;;;;22.10;13.53;;;11.50;1.00;;;;;;5017111;28;20216;-64
2022/10/08 05:26:19;;;;;;;13.93;12.13;;;11.50;1.00;;;;;;5015565;28;20188;-64
2022/10/08 05:29:06;;;;;;;17.10;12.47;;;11.60;1.00;;;;;;5017253;28;20204;-64
2022/10/08 05:31:35;;;;;;;17.67;13.70;;;11.60;1.00;;;;;;5014171;28;20200;-64
2022/10/08 05:34:03;;;;;;;18.17;11.63;;;11.60;1.00;;;;;;5017781;28;20262;-64
2022/10/08 05:36:32;;;;;;;23.17;14.10;;;11.50;1.00;;;;;;5017221;28;20192;-64
2022/10/08 05:39:00;;;;;;;20.70;12.27;;;11.50;1.00;;;;;;5015053;28;20269;-64
2022/10/08 05:41:38;;;;;;;21.77;12.73;;;11.50;1.00;;;;;;5026496;28;20189;-64
2022/10/08 05:44:05;;;;;;;18.07;12.00;;;11.50;1.00;;;;;;5020420;28;20209;-64
2022/10/08 05:46:34;;;;;;;20.77;12.87;;;11.60;1.00;;;;;;5016959;28;20200;-65
2022/10/08 05:49:04;;;;;;;20.70;12.53;;;11.50;1.00;;;;;;5018466;28;20206;-66
2022/10/08 05:51:31;;;;;;;19.00;12.77;;;11.50;1.00;;;;;;5015737;28;20200;-64
2022/10/08 05:54:00;;;;;;;24.30;13.27;;;11.50;1.00;;;;;;5018675;28;20722;-65
2022/10/08 05:56:27;;;;;;;24.70;12.87;;;11.50;1.00;;;;;;5022721;28;20293;-65
2022/10/08 05:58:55;;;;;;;22.87;12.73;;;11.50;1.00;;;;;;5018440;28;20210;-65
2022/10/08 06:01:27;;;;;;;20.60;12.00;;;11.60;1.00;;;;;;5031755;28;20270;-62
2022/10/08 06:03:59;;;;;;;21.90;12.33;;;11.50;1.00;;;;;;5031432;28;20209;-64
2022/10/08 06:06:35;;;;;;;23.30;11.97;;;11.50;1.00;;;;;;5000375;28;20230;-65
2022/10/08 06:09:03;;;;;;;18.83;12.13;;;11.60;1.00;;;;;;5012743;28;20200;-66
2022/10/08 06:11:33;;;;;;;23.63;13.27;;;11.50;1.00;;;;;;5019815;28;20287;-64
2022/10/08 06:14:01;;;;;;;22.23;13.53;;;11.60;1.00;;;;;;5021346;28;20721;-64
2022/10/08 06:16:29;;;;;;;28.23;13.60;;;11.60;99.90;;;;;;5017489;28;20592;-65
2022/10/08 06:18:56;;;;;;;22.67;12.87;;;11.60;99.90;;;;;;5021656;28;20204;-63
2022/10/08 06:21:26;;;;;;;27.30;12.73;;;11.60;99.90;;;;;;5022753;28;20196;-63
2022/10/08 06:23:55;;;;;;;21.43;12.90;;;11.70;99.90;;;;;;5021613;28;20193;-63
2022/10/08 06:26:25;;;;;;;22.17;12.70;;;11.80;99.90;;;;;;5020477;28;20193;-63
2022/10/08 06:28:56;;;;;;;19.60;13.20;;;11.70;1.00;;;;;;5039381;28;20363;-66
2022/10/08 06:31:23;;;;;;;22.50;12.43;;;11.70;1.00;;;;;;5053807;28;20199;-66
2022/10/08 06:33:54;;;;;;;19.77;13.00;;;11.70;1.00;;;;;;5039499;28;20579;-66
2022/10/08 06:36:24;;;;;;;20.27;13.43;;;11.70;1.00;;;;;;5023932;28;20216;-65
2022/10/08 06:38:54;;;;;;;18.60;12.77;;;11.70;78.90;;;;;;5040366;28;20304;-66
2022/10/08 06:41:21;;;;;;;24.80;14.27;;;11.70;99.90;;;;;;5039999;28;20314;-65
2022/10/08 06:43:48;;;;;;;19.93;12.33;;;11.70;83.80;;;;;;5025183;28;20315;-65
2022/10/08 06:46:16;;;;;;;22.60;13.37;;;11.70;1.00;;;;;;5022384;28;20193;-63
2022/10/08 06:48:43;;;;;;;17.27;12.50;;;11.80;1.00;;;;;;5038735;28;20196;-63
2022/10/08 06:51:12;;;;;;;20.33;12.80;;;11.80;1.00;;;;;;5030327;28;20214;-63
2022/10/08 06:53:44;;;;;;;21.37;12.80;;;11.80;1.00;;;;;;5037125;28;20195;-64
2022/10/08 06:56:13;;;;;;;19.27;11.80;;;11.80;1.00;;;;;;5023181;28;20191;-64
2022/10/08 06:58:42;;;;;;;18.83;12.10;;;11.90;1.00;;;;;;5038449;28;20322;-64
2022/10/08 07:01:14;;;;;;;15.93;10.63;;;11.90;1.00;;;;;;5037800;28;20306;-63
2022/10/08 07:03:41;;;;;;;20.93;11.50;;;11.90;1.00;;;;;;5011094;28;20198;-63
2022/10/08 07:06:12;;;;;;;28.87;12.00;;;12.00;1.00;;;;;;5039765;28;20201;-63
2022/10/08 07:08:39;;;;;;;17.67;11.50;;;12.00;1.00;;;;;;5053678;28;20220;-65
2022/10/08 07:11:15;;;;;;;15.53;10.33;;;12.10;1.00;;;;;;5022564;28;20701;-63
2022/10/08 07:13:42;;;;;;;21.93;11.93;;;12.10;99.90;;;;;;5040130;28;20578;-66
2022/10/08 07:16:14;;;;;;;20.60;11.27;;;12.10;99.90;;;;;;5027477;28;20337;-67
2022/10/08 07:18:48;;;;;;;17.80;11.07;;;12.10;99.90;;;;;;5020329;28;20197;-69
2022/10/08 07:21:17;;;;;;;21.93;12.27;;;12.00;99.90;;;;;;5038708;28;20243;-67
2022/10/08 07:23:46;;;;;;;22.00;11.57;;;12.10;99.90;;;;;;5020829;28;20191;-70
2022/10/08 07:26:16;;;;;;;16.80;9.93;;;12.10;99.90;;;;;;5028540;28;20737;-66
2022/10/08 07:28:58;;;;;;;21.67;11.37;;;12.10;99.90;;;;;;5052755;28;20227;-66
2022/10/08 07:31:28;;;;;;;20.00;11.13;;;12.00;57.20;;;;;;5033749;28;20199;-66
2022/10/08 07:33:57;;;;;;;20.60;10.70;;;12.00;99.90;;;;;;5025178;28;20738;-66
2022/10/08 07:36:26;;;;;;;16.73;10.67;;;12.10;1.00;;;;;;5038196;28;20204;-66
2022/10/08 07:38:55;;;;;;;18.70;10.23;;;12.10;99.90;;;;;;5038568;28;20202;-66
2022/10/08 07:41:22;;;;;;;14.20;10.13;;;12.20;96.90;;;;;;5040509;28;20616;-66
2022/10/08 07:43:54;;;;;;;14.63;10.37;;;12.20;1.00;;;;;;5055707;28;20832;-66
2022/10/08 07:46:21;;;;;;;18.70;10.00;;;12.20;74.50;;;;;;5029761;28;20291;-66
2022/10/08 07:48:49;;;;;;;14.63;9.60;;;12.30;1.00;;;;;;5020830;28;20714;-66
2022/10/08 07:51:19;;;;;;;18.87;9.90;;;12.50;1.00;;;;;;5037693;28;20327;-66
2022/10/08 07:53:46;;;;;;;17.73;11.03;;;12.50;1.00;;;;;;5039786;28;20184;-66
2022/10/08 07:56:16;;;;;;;18.80;11.80;;;12.30;1.00;;;;;;5054586;28;20663;-66
2022/10/08 07:58:43;;;;;;;17.10;9.70;;;12.40;99.90;;;;;;5035133;28;20202;-66
2022/10/08 08:01:16;;;;;;;21.53;10.97;;;12.50;1.00;;;;;;5004445;28;20221;-66
2022/10/08 08:03:43;;;;;;;16.83;10.30;;;12.50;96.00;;;;;;5037355;28;20211;-66
2022/10/08 08:06:15;;;;;;;19.47;13.30;;;12.70;99.90;;;;;;5022250;28;20187;-66
2022/10/08 08:08:44;;;;;;;23.80;14.70;;;12.60;1.00;;;;;;5044978;28;20212;-66
2022/10/08 08:11:14;;;;;;;17.37;11.53;;;12.70;1.00;;;;;;5038649;28;20231;-66
2022/10/08 08:13:42;;;;;;;27.17;13.20;;;12.90;1.30;;;;;;5037673;28;20321;-66
2022/10/08 08:16:17;;;;;;;19.63;12.77;;;13.10;1.00;;;;;;5035697;28;20200;-67
2022/10/08 08:18:47;;;;;;;15.80;13.00;;;13.30;99.90;;;;;;5021466;28;20202;-66
2022/10/08 08:21:17;;;;;;;18.87;11.97;;;13.50;99.90;;;;;;5020237;28;20215;-66
2022/10/08 08:23:47;;;;;;;20.83;12.73;;;13.60;99.90;;;;;;5037733;28;20281;-66
2022/10/08 08:26:25;;;;;;;20.97;14.27;;;13.60;1.00;;;;;;5026903;28;20216;-66
2022/10/08 08:28:54;;;;;;;21.23;13.73;;;13.40;99.90;;;;;;5027909;28;20262;-66
2022/10/08 08:31:29;;;;;;;20.97;14.10;;;13.40;99.90;;;;;;5024267;28;20208;-66
2022/10/08 08:33:58;;;;;;;24.10;15.50;;;13.60;1.00;;;;;;5033579;28;20200;-66
2022/10/08 08:36:29;;;;;;;24.80;15.47;;;13.80;1.00;;;;;;5018054;28;20211;-66
2022/10/08 08:38:57;;;;;;;22.47;12.90;;;13.90;1.00;;;;;;5018763;28;20396;-66
2022/10/08 08:41:46;;;;;;;19.40;14.67;;;14.00;1.00;;;;;;5024913;28;20224;-67
2022/10/08 08:44:35;;;;;;;20.60;13.07;;;14.70;1.00;;;;;;5020865;28;20275;-66
2022/10/08 08:47:23;;;;;;;14.85;12.25;;;15.20;99.90;;;;;;5018426;28;20276;-66
2022/10/08 08:50:01;;;;;;;16.95;9.35;;;16.70;99.90;;;;;;5016413;28;20200;-66
2022/10/08 08:52:33;;;;;;;11.55;7.90;;;21.80;1.00;;;;;;5033711;28;20202;-67
2022/10/08 08:55:00;;;;;;;14.40;7.97;;;24.40;1.00;;;;;;5018275;28;20213;-67
2022/10/08 08:57:37;;;;;;;9.93;6.28;;;27.60;1.00;;;;;;5017859;28;20279;-65
2022/10/08 09:00:21;;;;;;;8.75;4.88;;;27.50;1.00;;;;;;5018352;28;20226;-66
2022/10/08 09:03:33;;;;;;;12.50;6.93;;;23.20;1.00;;;;;;5016248;28;20291;-68
2022/10/08 09:06:10;;;;;;;11.65;7.63;;;19.80;1.00;;;;;;5004491;28;20242;-67
2022/10/08 09:09:00;;;;;;;9.00;6.18;;;19.90;1.00;;;;;;5026005;28;20219;-67
2022/10/08 09:11:28;;;;;;;10.05;5.55;;;24.60;1.00;;;;;;5022957;28;20680;-67
2022/10/08 09:14:11;;;;;;;10.38;5.75;;;22.70;1.00;;;;;;5018691;28;20216;-67
2022/10/08 09:16:38;;;;;;;9.77;4.82;;;21.90;1.00;;;;;;5025057;28;20623;-68
2022/10/08 09:19:05;;;;;;;9.18;5.13;;;25.40;1.00;;;;;;5033973;28;20212;-68
2022/10/08 09:21:33;;;;;;;13.38;5.00;;;23.00;1.00;;;;;;5019717;28;20220;-67
2022/10/08 09:24:01;;;;;;;9.98;4.75;;;21.30;1.00;;;;;;5019588;28;20652;-68
2022/10/08 09:26:34;;;;;;;12.20;6.95;;;19.90;1.00;;;;;;5018758;28;20289;-66
2022/10/08 09:29:03;;;;;;;12.38;5.80;;;17.90;1.00;;;;;;5018152;28;20287;-66
2022/10/08 09:31:45;;;;;;;8.80;5.60;;;17.40;1.00;;;;;;5020359;28;20219;-66
2022/10/08 09:34:14;;;;;;;13.65;8.32;;;19.10;1.00;;;;;;5020048;28;20599;-66
2022/10/08 09:36:49;;;;;;;7.93;4.25;;;21.50;1.00;;;;;;5018167;28;20302;-65
2022/10/08 09:39:19;;;;;;;8.15;4.20;;;23.50;1.00;;;;;;5034721;28;20205;-66
2022/10/08 09:42:02;;;;;;;10.93;5.18;;;22.60;1.00;;;;;;5036670;28;20247;-67
2022/10/08 09:44:42;;;;;;;9.68;6.53;;;21.30;1.00;;;;;;5019515;28;20232;-65
2022/10/08 09:47:12;;;;;;;9.30;6.78;;;18.90;1.00;;;;;;5030283;28;20227;-65
2022/10/08 09:49:40;;;;;;;17.58;11.10;;;17.70;1.00;;;;;;5020554;28;20207;-66
2022/10/08 09:52:11;;;;;;;13.13;8.30;;;17.50;1.00;;;;;;5024244;28;20200;-66
2022/10/08 09:54:50;;;;;;;14.40;8.77;;;18.30;1.00;;;;;;5022670;28;20274;-66
2022/10/08 09:57:20;;;;;;;15.50;9.68;;;22.60;1.00;;;;;;5022876;28;20184;-65
2022/10/08 09:59:55;;;;;;;9.35;6.18;;;22.40;1.00;;;;;;5024232;28;20196;-66
2022/10/08 10:02:27;;;;;;;11.45;6.35;;;21.50;1.00;;;;;;5032384;28;20232;-65
2022/10/08 10:04:55;;;;;;;9.20;6.47;;;21.10;1.00;;;;;;5023889;28;20213;-67
2022/10/08 10:07:34;;;;;;;11.88;6.72;;;19.10;1.00;;;;;;5037359;28;20707;-65
2022/10/08 10:10:03;;;;;;;8.10;4.03;;;18.90;1.00;;;;;;5022585;28;20196;-65
2022/10/08 10:12:38;;;;;;;9.50;4.55;;;20.90;1.00;;;;;;5005797;28;20311;-65
2022/10/08 10:15:19;;;;;;;8.32;3.83;;;19.20;1.00;;;;;;5021963;28;20689;-66
2022/10/08 10:18:02;;;;;;;10.60;5.05;;;18.60;1.00;;;;;;5022634;28;20247;-65
2022/10/08 10:20:35;;;;;;;10.07;4.50;;;20.30;1.00;;;;;;5024875;28;20312;-66
2022/10/08 10:23:07;;;;;;;11.63;4.10;;;18.60;1.00;;;;;;5021450;28;20271;-66
2022/10/08 10:25:44;;;;;;;10.30;4.72;;;18.00;1.00;;;;;;5024598;28;20667;-64
2022/10/08 10:28:39;;;;;;;11.43;5.00;;;17.70;1.00;;;;;;5033649;28;20223;-64
2022/10/08 10:31:12;;;;;;;11.55;4.75;;;17.20;1.00;;;;;;5040146;28;20250;-65
2022/10/08 10:33:54;;;;;;;6.88;3.33;;;22.50;1.00;;;;;;5003010;28;20212;-66
2022/10/08 10:37:03;;;;;;;6.18;3.63;;;27.40;1.00;;;;;;5026854;28;20196;-65
2022/10/08 10:40:18;;;;;;;10.75;5.80;;;23.20;1.00;;;;;;5017707;28;20212;-65
2022/10/08 10:42:59;;;;;;;12.65;5.65;;;22.20;1.00;;;;;;4989546;28;20199;-64
2022/10/08 10:45:33;;;;;;;11.50;6.40;;;20.10;1.00;;;;;;5041566;28;20199;-65
2022/10/08 10:48:03;;;;;;;12.65;7.50;;;20.90;1.00;;;;;;5041832;28;20196;-65
2022/10/08 10:51:00;;;;;;;15.38;7.65;;;21.20;1.00;;;;;;5010854;28;20489;-65
2022/10/08 10:53:57;;;;;;;13.38;5.22;;;19.40;1.00;;;;;;5025035;28;20195;-64
2022/10/08 10:56:32;;;;;;;13.77;6.90;;;18.60;1.00;;;;;;5010798;28;20215;-65
2022/10/08 10:59:28;;;;;;;11.00;6.80;;;17.60;1.00;;;;;;5014343;28;20207;-65
2022/10/08 11:02:23;;;;;;;12.00;6.65;;;17.30;1.00;;;;;;5044535;28;20692;-65
2022/10/08 11:04:53;;;;;;;10.07;5.68;;;17.50;1.00;;;;;;5038565;28;20188;-65
2022/10/08 11:08:05;;;;;;;7.00;4.13;;;21.50;1.00;;;;;;5030377;28;20209;-65
2022/10/08 11:11:14;;;;;;;8.80;4.95;;;24.30;1.00;;;;;;5024215;28;20717;-66
2022/10/08 11:14:03;;;;;;;11.65;7.40;;;25.50;1.00;;;;;;4961510;28;20223;-65
2022/10/08 11:16:43;;;;;;;12.57;5.88;;;24.10;1.00;;;;;;5018482;28;20622;-66
2022/10/08 11:19:25;;;;;;;8.30;4.80;;;25.10;1.00;;;;;;5041986;28;20206;-65
2022/10/08 11:22:12;;;;;;;10.63;4.47;;;24.20;1.00;;;;;;5023588;28;20207;-65
2022/10/08 11:24:45;;;;;;;8.90;5.10;;;22.10;1.00;;;;;;5012530;28;20211;-65
2022/10/08 11:27:54;;;;;;;7.63;3.78;;;19.80;1.00;;;;;;5027773;28;20394;-65
2022/10/08 11:30:37;;;;;;;8.23;3.08;;;20.50;1.00;;;;;;5008196;28;20648;-65
2022/10/08 11:33:08;;;;;;;8.48;2.65;;;23.00;1.00;;;;;;5040309;28;20196;-65
2022/10/08 11:35:57;;;;;;;6.03;2.50;;;24.50;1.00;;;;;;5039573;28;20199;-66
2022/10/08 11:38:34;;;;;;;5.15;2.30;;;25.20;1.00;;;;;;5029947;28;20783;-65
2022/10/08 11:41:26;;;;;;;6.85;2.55;;;24.80;1.00;;;;;;5011075;28;20708;-66
2022/10/08 11:43:57;;;;;;;4.95;2.88;;;25.00;1.00;;;;;;5030086;28;20544;-66
2022/10/08 11:46:30;;;;;;;5.15;2.58;;;24.70;1.00;;;;;;5005780;28;20218;-65
2022/10/08 11:49:24;;;;;;;4.88;2.45;;;24.60;1.00;;;;;;5041256;28;20208;-64
2022/10/08 11:51:52;;;;;;;6.28;2.75;;;24.80;1.00;;;;;;4995489;28;20197;-64
2022/10/08 11:54:33;;;;;;;7.45;3.40;;;24.90;1.00;;;;;;5055458;28;20697;-63
2022/10/08 11:57:10;;;;;;;7.75;3.58;;;24.40;1.00;;;;;;5006115;28;20696;-64
2022/10/08 11:59:43;;;;;;;5.70;2.78;;;24.80;1.00;;;;;;5029220;28;20196;-64
2022/10/08 12:02:24;;;;;;;5.75;2.88;;;24.30;1.00;;;;;;5036594;28;20264;-64
2022/10/08 12:04:54;;;;;;;5.93;2.00;;;22.70;1.00;;;;;;5041314;28;20207;-65
2022/10/08 12:07:29;;;;;;;6.15;3.10;;;21.30;1.00;;;;;;5038955;28;20873;-64
2022/10/08 12:10:05;;;;;;;5.50;2.00;;;20.00;1.00;;;;;;5013831;28;20242;-64
2022/10/08 12:12:51;;;;;;;3.92;1.77;;;19.30;1.00;;;;;;5030220;28;20639;-64
2022/10/08 12:15:24;;;;;;;5.97;1.70;;;18.70;1.00;;;;;;5038804;28;20559;-65
2022/10/08 12:17:55;;;;;;;8.05;3.20;;;18.00;1.00;;;;;;5020863;28;20250;-66
2022/10/08 12:20:36;;;;;;;2.58;1.60;;;17.80;1.00;;;;;;5029566;28;20277;-64
2022/10/08 12:23:07;;;;;;;4.63;3.00;;;17.80;1.00;;;;;;5025863;28;20196;-64
2022/10/08 12:25:43;;;;;;;3.97;1.63;;;17.60;1.00;;;;;;5040808;28;20199;-64
2022/10/08 12:28:20;;;;;;;4.85;2.17;;;17.60;1.00;;;;;;5022943;28;20305;-64
2022/10/08 12:30:52;;;;;;;2.60;1.67;;;17.80;1.00;;;;;;5028129;28;20765;-64
2022/10/08 12:33:22;;;;;;;6.15;1.50;;;17.80;1.00;;;;;;5011906;28;20204;-64
2022/10/08 12:36:14;;;;;;;4.38;2.00;;;18.00;1.00;;;;;;5036797;28;20211;-65
2022/10/08 12:39:06;;;;;;;9.77;3.03;;;18.90;1.00;;;;;;5040799;28;20663;-65
2022/10/08 12:41:45;;;;;;;11.48;9.07;;;19.70;1.00;;;;;;5006380;28;20318;-65
2022/10/08 12:44:30;;;;;;;8.23;1.98;;;19.90;1.00;;;;;;5029611;28;20195;-64
2022/10/08 12:47:27;;;;;;;6.22;2.45;;;19.90;1.00;;;;;;5024144;28;20195;-65
2022/10/08 12:50:02;;;;;;;3.67;1.73;;;20.00;1.00;;;;;;5024404;28;20195;-65
2022/10/08 12:52:35;;;;;;;7.53;1.80;;;19.80;1.00;;;;;;5040440;28;20203;-64
2022/10/08 12:55:03;;;;;;;5.32;1.63;;;19.60;1.00;;;;;;5040947;28;20192;-65
2022/10/08 12:57:37;;;;;;;3.83;2.00;;;19.70;1.00;;;;;;5039406;28;20223;-65
2022/10/08 13:00:06;;;;;;;4.28;1.63;;;19.50;1.00;;;;;;5023456;28;20195;-65
2022/10/08 13:02:34;;;;;;;6.55;2.78;;;19.00;1.00;;;;;;5007459;28;20318;-64
2022/10/08 13:05:26;;;;;;;4.45;1.50;;;18.50;1.00;;;;;;5033046;28;20219;-65
2022/10/08 13:07:53;;;;;;;4.43;1.83;;;18.40;1.00;;;;;;5027620;28;20257;-65
2022/10/08 13:10:24;;;;;;;3.58;1.63;;;18.50;1.00;;;;;;5038422;28;20673;-65
2022/10/08 13:13:02;;;;;;;4.80;2.00;;;18.60;1.00;;;;;;5023924;28;21304;-65
2022/10/08 13:15:31;;;;;;;5.90;1.88;;;18.30;1.00;;;;;;5052561;28;20203;-64
2022/10/08 13:18:13;;;;;;;4.55;1.95;;;18.10;1.00;;;;;;5052000;28;20206;-65